createdAt,value
2023-04-26T00:00:13.986Z,98807.38
2023-04-26T00:02:41.959Z,98805.16
2023-04-26T00:05:10.937Z,98804.84
2023-04-26T00:07:39.071Z,98803.97
2023-04-26T00:10:10.714Z,98811.78
2023-04-26T00:12:38.653Z,98811.22
2023-04-26T00:15:08.851Z,98803.84
2023-04-26T00:17:37.874Z,98811.44
2023-04-26T00:20:10.026Z,98815.16
2023-04-26T00:22:40.028Z,98809.19
2023-04-26T00:25:12.793Z,98814.16
2023-04-26T00:27:41.502Z,98814.78
2023-04-26T00:30:11.429Z,98813.47
2023-04-26T00:32:40.183Z,98820.03
2023-04-26T00:35:09.287Z,98827.06
2023-04-26T00:37:38.083Z,98830.72
2023-04-26T00:40:06.964Z,98828.13
2023-04-26T00:42:34.769Z,98832.75
2023-04-26T00:45:04.241Z,98826.84
2023-04-26T00:47:33.186Z,98825.91
2023-04-26T00:50:02.408Z,98829.13
2023-04-26T00:52:32.146Z,98824.19
2023-04-26T00:55:00.861Z,98826.69
2023-04-26T00:57:29.585Z,98832.97
2023-04-26T00:59:57.489Z,98832.88
2023-04-26T01:02:25.845Z,98834.69
2023-04-26T01:04:53.856Z,98840.66
2023-04-26T01:07:21.880Z,98836.81
2023-04-26T01:09:51.103Z,98849.16
2023-04-26T01:12:20.515Z,98848.50
2023-04-26T01:14:48.497Z,98847.31
2023-04-26T01:17:17.333Z,98851.53
2023-04-26T01:19:50.702Z,98853.94
2023-04-26T01:22:19.813Z,98844.00
2023-04-26T01:24:52.237Z,98858.56
2023-04-26T01:27:20.163Z,98848.78
2023-04-26T01:29:48.884Z,98851.16
2023-04-26T01:32:16.809Z,98862.41
2023-04-26T01:34:44.643Z,98846.97
2023-04-26T01:37:13.509Z,98859.88
2023-04-26T01:39:42.209Z,98862.81
2023-04-26T01:42:11.213Z,98862.25
2023-04-26T01:44:39.930Z,98867.81
2023-04-26T01:47:07.735Z,98870.59
2023-04-26T01:49:36.637Z,98874.22
2023-04-26T01:52:05.378Z,98865.56
2023-04-26T01:54:34.079Z,98868.13
2023-04-26T01:57:02.884Z,98875.28
2023-04-26T01:59:30.934Z,98879.28
2023-04-26T02:01:58.857Z,98878.22
2023-04-26T02:04:27.884Z,98882.56
2023-04-26T02:06:55.764Z,98877.59
2023-04-26T02:09:23.547Z,98886.00
2023-04-26T02:11:52.281Z,98873.28
2023-04-26T02:14:20.599Z,98889.59
2023-04-26T02:16:49.489Z,98885.69
2023-04-26T02:19:18.259Z,98888.38
2023-04-26T02:22:12.068Z,98888.47
2023-04-26T02:24:40.137Z,98888.47
2023-04-26T02:27:07.987Z,98883.31
2023-04-26T02:29:44.169Z,98886.41
2023-04-26T02:32:15.997Z,98883.09
2023-04-26T02:34:45.888Z,98890.63
2023-04-26T02:37:13.705Z,98889.41
2023-04-26T02:39:41.657Z,98888.72
2023-04-26T02:42:13.289Z,98893.28
2023-04-26T02:44:41.058Z,98892.84
2023-04-26T02:47:11.532Z,98888.91
2023-04-26T02:49:40.328Z,98886.88
2023-04-26T02:52:08.189Z,98887.59
2023-04-26T02:54:36.844Z,98887.50
2023-04-26T02:57:04.710Z,98887.41
2023-04-26T02:59:32.768Z,98895.13
2023-04-26T03:02:01.566Z,98896.44
2023-04-26T03:04:30.469Z,98888.44
2023-04-26T03:06:58.289Z,98899.03
2023-04-26T03:09:26.126Z,98898.19
2023-04-26T03:11:53.975Z,98907.16
2023-04-26T03:14:23.149Z,98916.13
2023-04-26T03:16:51.125Z,98917.09
2023-04-26T03:19:18.996Z,98923.31
2023-04-26T03:21:46.850Z,98925.41
2023-04-26T03:24:14.636Z,98928.19
2023-04-26T03:26:42.487Z,98928.44
2023-04-26T03:29:12.629Z,98943.91
2023-04-26T03:31:40.652Z,98944.22
2023-04-26T03:34:08.990Z,98946.03
2023-04-26T03:36:36.804Z,98950.63
2023-04-26T03:39:06.372Z,98954.03
2023-04-26T03:41:37.079Z,98954.59
2023-04-26T03:44:05.290Z,98958.72
2023-04-26T03:46:34.164Z,98960.53
2023-04-26T03:49:02.929Z,98962.44
2023-04-26T03:51:31.541Z,98968.34
2023-04-26T03:54:00.841Z,98965.88
2023-04-26T03:56:29.580Z,98975.31
2023-04-26T03:58:58.222Z,98986.88
2023-04-26T04:01:26.947Z,98979.69
2023-04-26T04:03:54.866Z,98988.22
2023-04-26T04:06:23.823Z,98984.88
2023-04-26T04:08:52.046Z,98990.41
2023-04-26T04:11:20.609Z,98982.69
2023-04-26T04:13:48.438Z,98993.72
2023-04-26T04:16:16.270Z,98993.72
2023-04-26T04:18:45.040Z,98997.19
2023-04-26T04:21:13.750Z,99009.81
2023-04-26T04:23:43.739Z,99010.25
2023-04-26T04:26:12.838Z,99006.72
2023-04-26T04:28:45.737Z,99016.06
2023-04-26T04:31:14.864Z,99021.34
2023-04-26T04:33:42.681Z,99042.25
2023-04-26T04:36:11.404Z,99044.94
2023-04-26T04:38:39.260Z,99048.31
2023-04-26T04:41:08.837Z,99041.16
2023-04-26T04:43:38.747Z,99034.41
2023-04-26T04:46:06.604Z,99041.47
2023-04-26T04:48:34.376Z,99040.06
2023-04-26T04:51:02.663Z,99033.47
2023-04-26T04:53:32.209Z,99048.41
2023-04-26T04:56:01.867Z,99044.88
2023-04-26T04:58:29.591Z,99053.72
2023-04-26T05:01:01.472Z,99049.84
2023-04-26T05:03:29.496Z,99042.16
2023-04-26T05:05:57.626Z,99055.13
2023-04-26T05:08:25.448Z,99054.03
2023-04-26T05:10:53.634Z,99055.97
2023-04-26T05:13:21.407Z,99061.59
2023-04-26T05:15:51.000Z,99074.38
2023-04-26T05:18:18.714Z,99069.28
2023-04-26T05:20:46.506Z,99072.28
2023-04-26T05:23:14.291Z,99070.69
2023-04-26T05:25:42.118Z,99074.69
2023-04-26T05:28:12.909Z,99077.50
2023-04-26T05:30:41.018Z,99074.22
2023-04-26T05:33:08.846Z,99082.00
2023-04-26T05:35:36.753Z,99075.94
2023-04-26T05:38:04.669Z,99083.03
2023-04-26T05:40:32.629Z,99092.63
2023-04-26T05:43:00.441Z,99095.03
2023-04-26T05:45:28.223Z,99090.97
2023-04-26T05:47:56.891Z,99088.03
2023-04-26T05:50:26.542Z,99099.19
2023-04-26T05:52:56.167Z,99102.69
2023-04-26T05:55:24.741Z,99103.78
2023-04-26T05:57:52.646Z,99115.50
2023-04-26T06:00:23.792Z,99106.59
2023-04-26T06:02:53.441Z,99103.47
2023-04-26T06:05:22.108Z,99098.56
2023-04-26T06:07:50.332Z,99110.81
2023-04-26T06:10:18.102Z,99107.28
2023-04-26T06:12:46.662Z,99112.31
2023-04-26T06:15:14.741Z,99116.69
2023-04-26T06:17:44.344Z,99111.41
2023-04-26T06:20:12.563Z,99113.97
2023-04-26T06:22:40.286Z,99123.44
2023-04-26T06:25:09.324Z,99125.53
2023-04-26T06:27:39.216Z,99123.31
2023-04-26T06:30:11.045Z,99118.38
2023-04-26T06:32:42.514Z,99120.38
2023-04-26T06:35:11.127Z,99117.69
2023-04-26T06:37:40.912Z,99124.16
2023-04-26T06:40:09.906Z,99126.69
2023-04-26T06:42:37.696Z,99133.75
2023-04-26T06:45:06.897Z,99146.41
2023-04-26T06:47:34.767Z,99158.50
2023-04-26T06:50:06.071Z,99153.25
2023-04-26T06:52:35.746Z,99151.47
2023-04-26T06:55:04.984Z,99150.44
2023-04-26T06:57:34.569Z,99157.66
2023-04-26T07:00:06.198Z,99149.88
2023-04-26T07:02:34.057Z,62182.44
2023-04-26T07:05:02.253Z,99149.88
2023-04-26T07:07:30.256Z,99149.88
2023-04-26T07:09:57.983Z,99158.81
2023-04-26T07:12:27.669Z,99165.16
2023-04-26T07:14:55.532Z,99170.16
2023-04-26T07:17:25.069Z,99173.00
2023-04-26T07:19:54.010Z,99166.03
2023-04-26T07:22:23.717Z,99159.66
2023-04-26T07:24:51.590Z,99168.72
2023-04-26T07:27:19.329Z,99168.38
2023-04-26T07:29:47.112Z,99167.53
2023-04-26T07:32:16.708Z,99162.50
2023-04-26T07:34:44.647Z,99160.06
2023-04-26T07:37:12.515Z,99172.19
2023-04-26T07:39:40.257Z,99163.84
2023-04-26T07:42:08.079Z,99168.22
2023-04-26T07:44:37.666Z,99176.84
2023-04-26T07:47:05.682Z,99179.91
2023-04-26T07:49:33.429Z,99180.38
2023-04-26T07:52:02.584Z,99182.59
2023-04-26T07:54:32.314Z,99181.03
2023-04-26T07:57:00.139Z,62182.44
2023-04-26T07:59:28.080Z,62182.44
2023-04-26T08:01:55.872Z,62182.44
2023-04-26T08:04:36.822Z,62182.44
2023-04-26T08:07:04.750Z,99181.03
2023-04-26T08:09:32.882Z,99204.09
2023-04-26T08:12:00.649Z,99199.28
2023-04-26T08:14:30.129Z,99202.91
2023-04-26T08:16:57.935Z,99212.81
2023-04-26T08:19:27.043Z,99202.22
2023-04-26T08:21:54.733Z,99209.66
2023-04-26T08:24:22.691Z,99203.00
2023-04-26T08:26:50.599Z,99219.84
2023-04-26T08:29:18.940Z,99221.09
2023-04-26T08:31:48.449Z,99225.78
2023-04-26T08:34:18.204Z,99220.63
2023-04-26T08:36:48.757Z,99223.13
2023-04-26T08:39:18.150Z,99217.28
2023-04-26T08:41:55.636Z,99219.00
2023-04-26T08:44:26.055Z,99220.91
2023-04-26T08:47:26.476Z,99233.69
2023-04-26T08:50:04.013Z,99226.50
2023-04-26T08:52:33.046Z,99218.41
2023-04-26T08:55:01.882Z,99224.84
2023-04-26T08:57:33.814Z,99223.00
2023-04-26T09:00:13.710Z,99224.94
2023-04-26T09:02:49.914Z,99229.44
2023-04-26T09:05:24.555Z,99235.38
2023-04-26T09:08:02.361Z,99235.50
2023-04-26T09:10:32.645Z,99229.72
2023-04-26T09:13:00.576Z,99228.47
2023-04-26T09:15:28.527Z,99224.47
2023-04-26T09:17:56.295Z,99230.88
2023-04-26T09:20:26.110Z,99228.78
2023-04-26T09:23:16.096Z,99228.97
2023-04-26T09:25:43.942Z,99227.94
2023-04-26T09:28:29.613Z,99225.47
2023-04-26T09:30:57.354Z,99230.41
2023-04-26T09:33:25.107Z,99230.72
2023-04-26T09:35:56.904Z,99230.53
2023-04-26T09:38:24.595Z,99221.09
2023-04-26T09:40:55.032Z,99223.25
2023-04-26T09:43:23.812Z,99221.16
2023-04-26T09:45:58.692Z,99225.19
2023-04-26T09:48:35.158Z,99217.91
2023-04-26T09:51:14.603Z,99221.22
2023-04-26T09:53:47.448Z,99219.06
2023-04-26T09:56:22.295Z,99219.66
2023-04-26T09:59:05.888Z,99222.69
2023-04-26T10:01:34.294Z,99230.44
2023-04-26T10:04:04.625Z,99226.03
2023-04-26T10:06:33.633Z,99221.63
2023-04-26T10:09:04.577Z,99224.94
2023-04-26T10:11:32.439Z,99230.25
2023-04-26T10:14:00.518Z,99219.25
2023-04-26T10:16:32.330Z,99229.41
2023-04-26T10:19:04.481Z,99226.31
2023-04-26T10:21:38.779Z,99228.84
2023-04-26T10:24:07.325Z,99223.22
2023-04-26T10:27:07.520Z,99232.41
2023-04-26T10:29:56.803Z,99230.81
2023-04-26T10:32:24.986Z,99222.00
2023-04-26T10:35:13.820Z,99235.22
2023-04-26T10:38:01.522Z,99230.63
2023-04-26T10:40:39.542Z,99237.50
2023-04-26T10:43:15.728Z,99225.84
2023-04-26T10:45:46.155Z,99226.72
2023-04-26T10:48:31.987Z,99236.22
2023-04-26T10:51:02.736Z,99238.06
2023-04-26T10:53:54.644Z,99234.53
2023-04-26T10:56:24.361Z,99232.78
2023-04-26T10:59:33.294Z,99239.94
2023-04-26T11:02:02.402Z,99235.72
2023-04-26T11:04:52.789Z,99240.66
2023-04-26T11:07:38.669Z,99247.81
2023-04-26T11:10:10.812Z,99238.84
2023-04-26T11:12:43.199Z,99231.84
2023-04-26T11:15:14.159Z,99236.13
2023-04-26T11:17:42.027Z,99239.41
2023-04-26T11:20:17.637Z,99234.66
2023-04-26T11:22:45.737Z,99228.00
2023-04-26T11:25:14.725Z,99231.81
2023-04-26T11:27:46.096Z,99234.19
2023-04-26T11:30:14.243Z,99238.19
2023-04-26T11:32:42.095Z,99238.31
2023-04-26T11:35:10.386Z,99241.00
2023-04-26T11:37:41.804Z,99242.09
2023-04-26T11:40:13.581Z,99234.25
2023-04-26T11:42:42.539Z,99240.63
2023-04-26T11:45:11.684Z,99240.25
2023-04-26T11:47:40.535Z,99245.56
2023-04-26T11:50:10.299Z,99241.25
2023-04-26T11:52:42.483Z,99241.22
2023-04-26T11:55:10.732Z,99249.50
2023-04-26T11:57:42.080Z,99237.56
2023-04-26T12:00:14.998Z,99238.97
2023-04-26T12:02:50.446Z,99242.06
2023-04-26T12:05:30.835Z,99234.00
2023-04-26T12:08:01.089Z,99251.59
2023-04-26T12:10:36.743Z,99253.16
2023-04-26T12:13:05.288Z,99253.66
2023-04-26T12:15:35.049Z,99249.00
2023-04-26T12:18:12.443Z,99245.47
2023-04-26T12:20:47.031Z,99249.91
2023-04-26T12:23:18.528Z,99247.72
2023-04-26T12:26:00.784Z,99250.78
2023-04-26T12:28:29.440Z,99250.03
2023-04-26T12:30:57.305Z,99248.03
2023-04-26T12:33:25.643Z,99256.09
2023-04-26T12:35:55.321Z,99259.91
2023-04-26T12:38:23.038Z,99256.94
2023-04-26T12:40:52.558Z,99252.38
2023-04-26T12:43:24.197Z,99254.91
2023-04-26T12:45:55.646Z,99251.16
2023-04-26T12:48:23.537Z,99260.63
2023-04-26T12:50:51.617Z,99246.09
2023-04-26T12:53:19.563Z,99263.22
2023-04-26T12:55:49.148Z,99262.75
2023-04-26T12:58:19.220Z,99252.59
2023-04-26T13:00:46.965Z,99255.59
2023-04-26T13:03:15.205Z,99253.75
2023-04-26T13:05:43.087Z,99259.03
2023-04-26T13:08:10.976Z,99258.72
2023-04-26T13:10:38.833Z,99263.06
2023-04-26T13:13:07.138Z,99268.44
2023-04-26T13:15:35.032Z,99263.44
2023-04-26T13:18:02.825Z,99263.16
2023-04-26T13:20:31.114Z,99260.31
2023-04-26T13:22:58.998Z,99264.78
2023-04-26T13:25:27.073Z,99274.41
2023-04-26T13:27:55.726Z,99278.97
2023-04-26T13:30:23.520Z,99284.03
2023-04-26T13:32:51.645Z,99284.38
2023-04-26T13:35:19.660Z,99285.50
2023-04-26T13:37:48.093Z,99290.66
2023-04-26T13:40:15.966Z,99288.81
2023-04-26T13:42:43.857Z,99285.53
2023-04-26T13:45:14.756Z,99297.91
2023-04-26T13:47:42.590Z,99303.22
2023-04-26T13:50:11.004Z,99296.59
2023-04-26T13:52:38.895Z,99288.31
2023-04-26T13:55:07.637Z,99295.53
2023-04-26T13:57:35.425Z,99292.09
2023-04-26T14:00:04.323Z,99289.88
2023-04-26T14:02:35.873Z,99303.34
2023-04-26T14:05:05.300Z,99295.22
2023-04-26T14:07:33.178Z,99299.00
2023-04-26T14:10:01.204Z,99298.19
2023-04-26T14:12:30.051Z,99300.72
2023-04-26T14:14:58.066Z,99311.69
2023-04-26T14:17:28.209Z,84605.09
2023-04-26T14:19:56.474Z,99306.53
2023-04-26T14:22:24.825Z,99305.88
2023-04-26T14:24:52.557Z,99306.63
2023-04-26T14:27:20.559Z,99311.31
2023-04-26T14:29:48.371Z,99313.75
2023-04-26T14:32:16.219Z,99313.97
2023-04-26T14:34:43.917Z,99319.81
2023-04-26T14:37:11.875Z,99321.09
2023-04-26T14:39:39.678Z,99319.63
2023-04-26T14:42:07.439Z,99300.63
2023-04-26T14:44:35.184Z,62182.44
2023-04-26T14:47:02.925Z,62182.44
2023-04-26T14:49:31.706Z,62182.44
2023-04-26T14:51:59.442Z,62182.44
2023-04-26T14:54:27.256Z,62182.44
2023-04-26T14:56:59.614Z,62182.44
2023-04-26T14:59:27.412Z,62182.44
2023-04-26T15:01:55.255Z,62182.44
2023-04-26T15:04:23.295Z,62182.44
2023-04-26T15:06:52.053Z,62182.44
2023-04-26T15:09:19.838Z,62182.44
2023-04-26T15:11:47.748Z,62182.44
2023-04-26T15:14:15.954Z,62182.44
2023-04-26T15:16:43.821Z,62182.44
2023-04-26T15:19:11.614Z,62182.44
2023-04-26T15:21:39.522Z,62182.44
2023-04-26T15:24:08.318Z,62182.44
2023-04-26T15:26:36.093Z,62182.44
2023-04-26T15:29:04.711Z,62182.44
2023-04-26T15:31:32.499Z,62182.44
2023-04-26T15:34:00.263Z,62182.44
2023-04-26T15:36:29.834Z,62182.44
2023-04-26T15:38:58.534Z,62182.44
2023-04-26T15:41:27.295Z,62182.44
2023-04-26T15:43:56.305Z,62182.44
2023-04-26T15:46:24.960Z,62182.44
2023-04-26T15:48:53.704Z,62182.44
2023-04-26T15:51:23.483Z,62182.44
2023-04-26T15:53:52.050Z,62182.44
2023-04-26T15:56:20.209Z,62182.44
2023-04-26T15:58:48.736Z,62182.44
2023-04-26T16:01:18.953Z,62182.44
2023-04-26T16:03:47.818Z,62182.44
2023-04-26T16:06:17.747Z,62182.44
2023-04-26T16:08:47.443Z,62182.44
2023-04-26T16:11:16.769Z,62182.44
2023-04-26T16:13:45.458Z,62182.44
2023-04-26T16:16:13.355Z,62182.44
2023-04-26T16:18:41.260Z,62182.44
2023-04-26T16:21:13.241Z,62182.44
2023-04-26T16:23:45.501Z,62182.44
2023-04-26T16:26:13.705Z,62182.44
2023-04-26T16:28:41.481Z,62182.44
2023-04-26T16:31:10.430Z,62182.44
2023-04-26T16:33:38.281Z,62182.44
2023-04-26T16:36:07.921Z,62182.44
2023-04-26T16:38:39.168Z,62182.44
2023-04-26T16:41:08.757Z,62182.44
2023-04-26T16:43:37.568Z,62182.44
2023-04-26T16:46:09.415Z,62182.44
2023-04-26T16:48:41.707Z,62182.44
2023-04-26T16:51:11.504Z,62182.44
2023-04-26T16:53:41.019Z,62182.44
2023-04-26T16:56:11.420Z,62182.44
2023-04-26T16:58:40.111Z,62182.44
2023-04-26T17:01:08.174Z,62182.44
2023-04-26T17:03:37.920Z,62182.44
2023-04-26T17:06:07.934Z,62182.44
2023-04-26T17:08:35.707Z,62182.44
2023-04-26T17:11:03.637Z,62182.44
2023-04-26T17:13:33.510Z,62182.44
2023-04-26T17:16:03.702Z,62182.44
2023-04-26T17:18:31.731Z,62182.44
2023-04-26T17:21:01.965Z,62182.44
2023-04-26T17:23:30.551Z,62182.44
2023-04-26T17:25:58.399Z,62182.44
2023-04-26T17:28:30.051Z,62182.44
2023-04-26T17:30:58.247Z,62182.44
2023-04-26T17:33:26.265Z,62182.44
2023-04-26T17:35:56.401Z,62182.44
2023-04-26T17:38:24.117Z,62182.44
2023-04-26T17:40:55.174Z,62182.44
2023-04-26T17:43:22.938Z,62182.44
2023-04-26T17:45:50.950Z,62182.44
2023-04-26T17:48:18.856Z,62182.44
2023-04-26T17:50:46.911Z,62182.44
2023-04-26T17:53:15.802Z,62182.44
2023-04-26T17:55:47.176Z,62182.44
2023-04-26T17:58:15.090Z,62182.44
2023-04-26T18:00:43.387Z,62182.44
2023-04-26T18:03:12.239Z,62182.44
2023-04-26T18:05:40.404Z,62182.44
2023-04-26T18:08:10.605Z,62182.44
2023-04-26T18:10:38.467Z,62182.44
2023-04-26T18:13:08.122Z,62182.44
2023-04-26T18:15:35.936Z,62182.44
2023-04-26T18:18:05.795Z,62182.44
2023-04-26T18:20:39.529Z,62182.44
2023-04-26T18:23:07.272Z,62182.44
2023-04-26T18:25:35.091Z,62182.44
2023-04-26T18:28:09.105Z,62182.44
2023-04-26T18:30:37.772Z,62182.44
2023-04-26T18:33:05.744Z,62182.44
2023-04-26T18:35:33.585Z,62182.44
2023-04-26T18:38:01.377Z,62182.44
2023-04-26T18:40:30.026Z,62182.44
2023-04-26T18:42:59.068Z,62182.44
2023-04-26T18:45:26.863Z,62182.44
2023-04-26T18:47:56.532Z,62182.44
2023-04-26T18:50:26.311Z,62182.44
2023-04-26T18:52:55.910Z,62182.44
2023-04-26T18:55:28.272Z,62182.44
2023-04-26T18:57:57.134Z,62182.44
2023-04-26T19:00:27.016Z,62182.44
2023-04-26T19:02:56.657Z,62182.44
2023-04-26T19:05:27.162Z,62182.44
2023-04-26T19:07:56.013Z,62182.44
2023-04-26T19:10:24.233Z,62182.44
2023-04-26T19:12:53.807Z,62182.44
2023-04-26T19:15:23.386Z,62182.44
2023-04-26T19:17:53.059Z,62182.44
2023-04-26T19:20:22.699Z,62182.44
2023-04-26T19:22:51.509Z,62182.44
2023-04-26T19:25:24.511Z,62182.44
2023-04-26T19:27:53.444Z,62182.44
2023-04-26T19:30:23.162Z,62182.44
2023-04-26T19:32:51.980Z,62182.44
2023-04-26T19:35:21.016Z,62182.44
2023-04-26T19:37:50.890Z,62182.44
2023-04-26T19:40:19.807Z,62182.44
2023-04-26T19:42:49.411Z,62182.44
2023-04-26T19:45:20.670Z,62182.44
2023-04-26T19:47:49.562Z,62182.44
2023-04-26T19:50:18.032Z,62182.44
2023-04-26T19:52:46.381Z,62182.44
2023-04-26T19:55:15.132Z,62182.44
2023-04-26T19:57:44.971Z,62182.44
2023-04-26T20:00:15.637Z,62182.44
2023-04-26T20:02:43.606Z,62182.44
2023-04-26T20:05:12.810Z,62182.44
2023-04-26T20:07:40.865Z,62182.44
2023-04-26T20:10:10.473Z,62182.44
2023-04-26T20:12:38.338Z,62182.44
2023-04-26T20:15:08.628Z,62182.44
2023-04-26T20:17:37.788Z,62182.44
2023-04-26T20:20:08.741Z,62182.44
2023-04-26T20:22:37.202Z,62182.44
2023-04-26T20:25:07.018Z,62182.44
2023-04-26T20:27:35.846Z,62182.44
2023-04-26T20:30:07.367Z,62182.44
2023-04-26T20:32:35.654Z,62182.44
2023-04-26T20:35:05.354Z,62182.44
2023-04-26T20:37:34.134Z,62182.44
2023-04-26T20:40:03.896Z,62182.44
2023-04-26T20:42:31.810Z,62182.44
2023-04-26T20:45:02.188Z,62182.44
2023-04-26T20:47:31.637Z,62182.44
2023-04-26T20:50:00.302Z,62182.44
2023-04-26T20:52:28.941Z,62182.44
2023-04-26T20:54:57.527Z,62182.44
2023-04-26T20:57:26.193Z,62182.44
2023-04-26T20:59:54.127Z,62182.44
2023-04-26T21:02:22.981Z,62182.44
2023-04-26T21:04:51.865Z,62182.44
2023-04-26T21:07:20.643Z,62182.44
2023-04-26T21:09:49.483Z,62182.44
2023-04-26T21:12:17.299Z,62182.44
2023-04-26T21:14:46.134Z,62182.44
2023-04-26T21:17:15.813Z,62182.44
2023-04-26T21:19:44.892Z,62182.44
2023-04-26T21:22:12.653Z,62182.44
2023-04-26T21:24:41.924Z,62182.44
2023-04-26T21:27:10.894Z,62182.44
2023-04-26T21:29:39.682Z,62182.44
2023-04-26T21:32:07.505Z,62182.44
2023-04-26T21:34:37.495Z,62182.44
2023-04-26T21:37:05.339Z,62182.44
2023-04-26T21:39:33.928Z,62182.44
2023-04-26T21:42:03.722Z,62182.44
2023-04-26T21:44:32.406Z,62182.44
2023-04-26T21:47:00.376Z,62182.44
2023-04-26T21:49:29.086Z,62182.44
2023-04-26T21:51:56.961Z,62182.44
2023-04-26T21:54:26.639Z,62182.44
2023-04-26T21:56:54.436Z,62182.44
2023-04-26T21:59:22.302Z,62182.44
2023-04-26T22:01:50.108Z,62182.44
2023-04-26T22:04:19.889Z,62182.44
2023-04-26T22:06:47.905Z,62182.44
2023-04-26T22:09:16.846Z,62182.44
2023-04-26T22:11:46.867Z,62182.44
2023-04-26T22:14:14.779Z,62182.44
2023-04-26T22:16:44.670Z,62182.44
2023-04-26T22:19:12.676Z,62182.44
2023-04-26T22:21:41.678Z,62182.44
2023-04-26T22:24:10.286Z,62182.44
2023-04-26T22:26:38.106Z,62182.44
2023-04-26T22:29:08.161Z,62182.44
2023-04-26T22:31:37.015Z,62182.44
2023-04-26T22:34:05.758Z,62182.44
2023-04-26T22:36:33.600Z,62182.44
2023-04-26T22:39:01.744Z,62182.44
2023-04-26T22:41:31.625Z,62182.44
2023-04-26T22:43:59.505Z,62182.44
2023-04-26T22:46:27.459Z,62182.44
2023-04-26T22:48:57.294Z,62182.44
2023-04-26T22:51:25.238Z,62182.44
2023-04-26T22:53:53.081Z,62182.44
2023-04-26T22:56:21.030Z,62182.44
2023-04-26T22:58:49.710Z,62182.44
2023-04-26T23:01:18.397Z,62182.44
2023-04-26T23:03:47.129Z,62182.44
2023-04-26T23:06:15.012Z,62182.44
2023-04-26T23:08:43.691Z,62182.44
2023-04-26T23:11:12.331Z,62182.44
2023-04-26T23:13:40.128Z,62182.44
2023-04-26T23:16:08.780Z,62182.44
2023-04-26T23:18:37.405Z,62182.44
2023-04-26T23:21:06.975Z,62182.44
2023-04-26T23:23:36.466Z,62182.44
2023-04-26T23:26:08.441Z,62182.44
2023-04-26T23:28:36.628Z,62182.44
2023-04-26T23:31:05.405Z,62182.44
2023-04-26T23:33:34.078Z,62182.44
2023-04-26T23:36:03.412Z,62182.44
2023-04-26T23:38:32.136Z,62182.44
2023-04-26T23:41:00.804Z,62182.44
2023-04-26T23:43:28.666Z,62182.44
2023-04-26T23:45:57.312Z,62182.44
2023-04-26T23:48:26.160Z,62182.44
2023-04-26T23:50:56.113Z,62182.44
2023-04-26T23:53:23.946Z,62182.44
2023-04-26T23:55:52.560Z,62182.44
2023-04-26T23:58:22.572Z,62182.44
